sensor_id;sensor_type;location;lat;lon;timestamp;P1;durP1;ratioP1;P2;durP2;ratioP2
41689;SDS011;27372;42.658;23.256;2023-07-22T00:00:33;11.82;;;5.25;;
41689;SDS011;27372;42.658;23.256;2023-07-22T00:02:58;10.90;;;5.45;;
41689;SDS011;27372;42.658;23.256;2023-07-22T00:05:26;11.98;;;5.82;;
41689;SDS011;27372;42.658;23.256;2023-07-22T00:07:52;15.77;;;6.10;;
41689;SDS011;27372;42.658;23.256;2023-07-22T00:10:17;16.17;;;6.05;;
41689;SDS011;27372;42.658;23.256;2023-07-22T00:12:43;12.48;;;5.75;;
41689;SDS011;27372;42.658;23.256;2023-07-22T00:15:08;14.23;;;6.13;;
41689;SDS011;27372;42.658;23.256;2023-07-22T00:17:37;19.52;;;6.95;;
41689;SDS011;27372;42.658;23.256;2023-07-22T00:20:09;13.00;;;6.05;;
41689;SDS011;27372;42.658;23.256;2023-07-22T00:22:39;12.73;;;6.20;;
41689;SDS011;27372;42.658;23.256;2023-07-22T00:25:05;13.35;;;5.90;;
41689;SDS011;27372;42.658;23.256;2023-07-22T00:27:36;10.15;;;6.03;;
41689;SDS011;27372;42.658;23.256;2023-07-22T00:30:03;16.63;;;5.68;;
41689;SDS011;27372;42.658;23.256;2023-07-22T00:32:35;14.73;;;5.82;;
41689;SDS011;27372;42.658;23.256;2023-07-22T00:35:06;12.13;;;6.47;;
41689;SDS011;27372;42.658;23.256;2023-07-22T00:37:32;13.43;;;6.10;;
41689;SDS011;27372;42.658;23.256;2023-07-22T00:39:57;14.32;;;6.20;;
41689;SDS011;27372;42.658;23.256;2023-07-22T00:42:23;11.95;;;5.57;;
41689;SDS011;27372;42.658;23.256;2023-07-22T00:44:49;17.23;;;6.30;;
41689;SDS011;27372;42.658;23.256;2023-07-22T00:47:17;17.20;;;5.68;;
41689;SDS011;27372;42.658;23.256;2023-07-22T00:49:42;13.65;;;5.82;;
41689;SDS011;27372;42.658;23.256;2023-07-22T00:52:11;10.88;;;5.53;;
41689;SDS011;27372;42.658;23.256;2023-07-22T00:54:36;14.68;;;5.90;;
41689;SDS011;27372;42.658;23.256;2023-07-22T00:57:04;10.43;;;5.85;;
41689;SDS011;27372;42.658;23.256;2023-07-22T00:59:31;11.15;;;5.10;;
41689;SDS011;27372;42.658;23.256;2023-07-22T01:01:57;15.18;;;5.85;;
41689;SDS011;27372;42.658;23.256;2023-07-22T01:04:26;12.13;;;6.38;;
41689;SDS011;27372;42.658;23.256;2023-07-22T01:06:51;17.13;;;7.55;;
41689;SDS011;27372;42.658;23.256;2023-07-22T01:09:24;15.57;;;5.88;;
41689;SDS011;27372;42.658;23.256;2023-07-22T01:11:49;11.75;;;5.80;;
41689;SDS011;27372;42.658;23.256;2023-07-22T01:14:14;10.90;;;5.75;;
41689;SDS011;27372;42.658;23.256;2023-07-22T01:16:40;10.77;;;5.72;;
41689;SDS011;27372;42.658;23.256;2023-07-22T01:19:11;11.13;;;5.78;;
41689;SDS011;27372;42.658;23.256;2023-07-22T01:21:39;16.50;;;6.18;;
41689;SDS011;27372;42.658;23.256;2023-07-22T01:26:40;14.05;;;5.75;;
41689;SDS011;27372;42.658;23.256;2023-07-22T01:29:09;10.25;;;5.82;;
41689;SDS011;27372;42.658;23.256;2023-07-22T01:31:37;10.90;;;5.50;;
41689;SDS011;27372;42.658;23.256;2023-07-22T01:34:03;14.23;;;5.70;;
41689;SDS011;27372;42.658;23.256;2023-07-22T01:36:31;12.90;;;5.40;;
41689;SDS011;27372;42.658;23.256;2023-07-22T01:39:05;10.88;;;5.85;;
41689;SDS011;27372;42.658;23.256;2023-07-22T01:41:43;11.77;;;5.72;;
41689;SDS011;27372;42.658;23.256;2023-07-22T01:44:10;12.38;;;5.97;;
41689;SDS011;27372;42.658;23.256;2023-07-22T01:46:36;14.07;;;6.10;;
41689;SDS011;27372;42.658;23.256;2023-07-22T01:49:04;14.15;;;6.00;;
41689;SDS011;27372;42.658;23.256;2023-07-22T01:51:32;12.15;;;6.25;;
41689;SDS011;27372;42.658;23.256;2023-07-22T01:53:58;11.00;;;6.20;;
41689;SDS011;27372;42.658;23.256;2023-07-22T01:56:23;15.27;;;6.18;;
41689;SDS011;27372;42.658;23.256;2023-07-22T01:58:49;14.07;;;6.30;;
41689;SDS011;27372;42.658;23.256;2023-07-22T02:01:14;11.63;;;5.97;;
41689;SDS011;27372;42.658;23.256;2023-07-22T02:03:41;16.88;;;6.13;;
41689;SDS011;27372;42.658;23.256;2023-07-22T02:06:07;13.68;;;6.28;;
41689;SDS011;27372;42.658;23.256;2023-07-22T02:08:35;11.90;;;5.68;;
41689;SDS011;27372;42.658;23.256;2023-07-22T02:11:07;11.45;;;6.15;;
41689;SDS011;27372;42.658;23.256;2023-07-22T02:13:36;13.00;;;6.95;;
41689;SDS011;27372;42.658;23.256;2023-07-22T02:16:04;13.93;;;6.68;;
41689;SDS011;27372;42.658;23.256;2023-07-22T02:18:30;11.40;;;6.53;;
41689;SDS011;27372;42.658;23.256;2023-07-22T02:20:56;10.38;;;6.20;;
41689;SDS011;27372;42.658;23.256;2023-07-22T02:23:22;10.48;;;6.10;;
41689;SDS011;27372;42.658;23.256;2023-07-22T02:25:51;9.55;;;5.70;;
41689;SDS011;27372;42.658;23.256;2023-07-22T02:28:18;12.38;;;6.43;;
41689;SDS011;27372;42.658;23.256;2023-07-22T02:30:48;10.38;;;5.90;;
41689;SDS011;27372;42.658;23.256;2023-07-22T02:33:22;14.80;;;6.53;;
41689;SDS011;27372;42.658;23.256;2023-07-22T02:35:48;9.90;;;5.70;;
41689;SDS011;27372;42.658;23.256;2023-07-22T02:38:16;12.73;;;6.20;;
41689;SDS011;27372;42.658;23.256;2023-07-22T02:40:44;11.00;;;6.30;;
41689;SDS011;27372;42.658;23.256;2023-07-22T02:43:13;14.65;;;6.70;;
41689;SDS011;27372;42.658;23.256;2023-07-22T02:45:40;13.13;;;6.30;;
41689;SDS011;27372;42.658;23.256;2023-07-22T02:48:06;14.45;;;6.53;;
41689;SDS011;27372;42.658;23.256;2023-07-22T02:50:31;14.43;;;6.53;;
41689;SDS011;27372;42.658;23.256;2023-07-22T02:53:00;16.13;;;6.75;;
41689;SDS011;27372;42.658;23.256;2023-07-22T02:55:25;9.93;;;6.03;;
41689;SDS011;27372;42.658;23.256;2023-07-22T02:57:53;13.05;;;5.82;;
41689;SDS011;27372;42.658;23.256;2023-07-22T03:00:19;13.30;;;6.50;;
41689;SDS011;27372;42.658;23.256;2023-07-22T03:02:55;12.82;;;6.40;;
41689;SDS011;27372;42.658;23.256;2023-07-22T03:05:34;17.08;;;6.20;;
41689;SDS011;27372;42.658;23.256;2023-07-22T03:08:03;12.90;;;5.82;;
41689;SDS011;27372;42.658;23.256;2023-07-22T03:10:32;11.90;;;6.07;;
41689;SDS011;27372;42.658;23.256;2023-07-22T03:13:03;12.73;;;6.10;;
41689;SDS011;27372;42.658;23.256;2023-07-22T03:15:35;12.88;;;6.07;;
41689;SDS011;27372;42.658;23.256;2023-07-22T03:18:03;13.73;;;6.47;;
41689;SDS011;27372;42.658;23.256;2023-07-22T03:20:29;13.65;;;6.15;;
41689;SDS011;27372;42.658;23.256;2023-07-22T03:22:56;13.52;;;5.97;;
41689;SDS011;27372;42.658;23.256;2023-07-22T03:25:24;14.05;;;6.20;;
41689;SDS011;27372;42.658;23.256;2023-07-22T03:27:51;10.88;;;6.47;;
41689;SDS011;27372;42.658;23.256;2023-07-22T03:30:17;12.02;;;6.00;;
41689;SDS011;27372;42.658;23.256;2023-07-22T03:32:44;16.17;;;6.57;;
41689;SDS011;27372;42.658;23.256;2023-07-22T03:35:12;11.52;;;6.68;;
41689;SDS011;27372;42.658;23.256;2023-07-22T03:37:39;11.60;;;6.50;;
41689;SDS011;27372;42.658;23.256;2023-07-22T03:40:05;16.48;;;6.60;;
41689;SDS011;27372;42.658;23.256;2023-07-22T03:42:54;15.10;;;6.77;;
41689;SDS011;27372;42.658;23.256;2023-07-22T03:45:20;13.65;;;6.68;;
41689;SDS011;27372;42.658;23.256;2023-07-22T03:47:51;14.18;;;6.55;;
41689;SDS011;27372;42.658;23.256;2023-07-22T03:50:18;15.68;;;6.65;;
41689;SDS011;27372;42.658;23.256;2023-07-22T03:52:43;14.43;;;6.60;;
41689;SDS011;27372;42.658;23.256;2023-07-22T03:55:09;19.92;;;6.97;;
41689;SDS011;27372;42.658;23.256;2023-07-22T03:57:34;24.00;;;7.00;;
41689;SDS011;27372;42.658;23.256;2023-07-22T04:00:02;46.88;;;8.00;;
41689;SDS011;27372;42.658;23.256;2023-07-22T04:02:34;14.88;;;6.72;;
41689;SDS011;27372;42.658;23.256;2023-07-22T04:05:11;15.73;;;6.75;;
41689;SDS011;27372;42.658;23.256;2023-07-22T04:07:36;20.42;;;7.85;;
41689;SDS011;27372;42.658;23.256;2023-07-22T04:10:02;20.05;;;7.55;;
41689;SDS011;27372;42.658;23.256;2023-07-22T04:12:27;22.88;;;8.32;;
41689;SDS011;27372;42.658;23.256;2023-07-22T04:17:28;14.05;;;7.55;;
41689;SDS011;27372;42.658;23.256;2023-07-22T04:19:59;19.73;;;7.97;;
41689;SDS011;27372;42.658;23.256;2023-07-22T04:22:25;13.52;;;7.18;;
41689;SDS011;27372;42.658;23.256;2023-07-22T04:24:56;14.63;;;7.53;;
41689;SDS011;27372;42.658;23.256;2023-07-22T04:27:25;14.93;;;6.85;;
41689;SDS011;27372;42.658;23.256;2023-07-22T04:29:51;15.82;;;7.20;;
41689;SDS011;27372;42.658;23.256;2023-07-22T04:32:17;12.45;;;7.13;;
41689;SDS011;27372;42.658;23.256;2023-07-22T04:34:44;17.65;;;6.95;;
41689;SDS011;27372;42.658;23.256;2023-07-22T04:37:16;12.70;;;7.03;;
41689;SDS011;27372;42.658;23.256;2023-07-22T04:39:48;28.35;;;7.60;;
41689;SDS011;27372;42.658;23.256;2023-07-22T04:42:15;29.13;;;7.65;;
41689;SDS011;27372;42.658;23.256;2023-07-22T04:44:41;16.15;;;7.90;;
41689;SDS011;27372;42.658;23.256;2023-07-22T04:47:07;18.35;;;7.47;;
41689;SDS011;27372;42.658;23.256;2023-07-22T04:49:32;17.13;;;7.72;;
41689;SDS011;27372;42.658;23.256;2023-07-22T04:51:58;21.10;;;7.90;;
41689;SDS011;27372;42.658;23.256;2023-07-22T04:56:53;12.75;;;7.10;;
41689;SDS011;27372;42.658;23.256;2023-07-22T04:59:18;17.75;;;7.25;;
41689;SDS011;27372;42.658;23.256;2023-07-22T05:01:47;16.27;;;7.00;;
41689;SDS011;27372;42.658;23.256;2023-07-22T05:04:12;16.13;;;7.22;;
41689;SDS011;27372;42.658;23.256;2023-07-22T05:06:42;17.52;;;6.45;;
41689;SDS011;27372;42.658;23.256;2023-07-22T05:09:07;15.20;;;6.40;;
41689;SDS011;27372;42.658;23.256;2023-07-22T05:11:36;20.05;;;6.55;;
41689;SDS011;27372;42.658;23.256;2023-07-22T05:14:01;17.25;;;7.18;;
41689;SDS011;27372;42.658;23.256;2023-07-22T05:16:27;17.10;;;6.60;;
41689;SDS011;27372;42.658;23.256;2023-07-22T05:18:52;16.42;;;6.85;;
41689;SDS011;27372;42.658;23.256;2023-07-22T05:21:20;9.93;;;5.90;;
41689;SDS011;27372;42.658;23.256;2023-07-22T05:23:46;13.43;;;6.15;;
41689;SDS011;27372;42.658;23.256;2023-07-22T05:26:17;13.68;;;6.10;;
41689;SDS011;27372;42.658;23.256;2023-07-22T05:28:42;12.57;;;6.38;;
41689;SDS011;27372;42.658;23.256;2023-07-22T05:31:07;11.65;;;6.30;;
41689;SDS011;27372;42.658;23.256;2023-07-22T05:33:33;10.18;;;5.97;;
41689;SDS011;27372;42.658;23.256;2023-07-22T05:35:58;11.95;;;6.15;;
41689;SDS011;27372;42.658;23.256;2023-07-22T05:38:24;10.65;;;5.60;;
41689;SDS011;27372;42.658;23.256;2023-07-22T05:40:51;11.27;;;6.60;;
41689;SDS011;27372;42.658;23.256;2023-07-22T05:43:17;14.18;;;6.30;;
41689;SDS011;27372;42.658;23.256;2023-07-22T05:45:43;12.77;;;6.22;;
41689;SDS011;27372;42.658;23.256;2023-07-22T05:48:11;14.77;;;6.28;;
41689;SDS011;27372;42.658;23.256;2023-07-22T05:50:36;15.52;;;7.03;;
41689;SDS011;27372;42.658;23.256;2023-07-22T05:53:08;12.57;;;6.20;;
41689;SDS011;27372;42.658;23.256;2023-07-22T05:55:33;13.45;;;6.63;;
41689;SDS011;27372;42.658;23.256;2023-07-22T05:57:58;11.63;;;6.30;;
41689;SDS011;27372;42.658;23.256;2023-07-22T06:00:30;12.52;;;6.82;;
41689;SDS011;27372;42.658;23.256;2023-07-22T06:02:59;13.45;;;7.20;;
41689;SDS011;27372;42.658;23.256;2023-07-22T06:05:24;13.52;;;6.88;;
41689;SDS011;27372;42.658;23.256;2023-07-22T06:07:53;10.98;;;7.15;;
41689;SDS011;27372;42.658;23.256;2023-07-22T06:10:27;17.75;;;7.15;;
41689;SDS011;27372;42.658;23.256;2023-07-22T06:12:59;16.60;;;7.60;;
41689;SDS011;27372;42.658;23.256;2023-07-22T06:15:33;13.63;;;6.75;;
41689;SDS011;27372;42.658;23.256;2023-07-22T06:18:02;21.38;;;7.38;;
41689;SDS011;27372;42.658;23.256;2023-07-22T06:20:28;17.90;;;7.75;;
41689;SDS011;27372;42.658;23.256;2023-07-22T06:22:54;17.60;;;7.32;;
41689;SDS011;27372;42.658;23.256;2023-07-22T06:25:20;15.43;;;7.57;;
41689;SDS011;27372;42.658;23.256;2023-07-22T06:27:45;16.38;;;6.88;;
41689;SDS011;27372;42.658;23.256;2023-07-22T06:30:11;13.45;;;6.78;;
41689;SDS011;27372;42.658;23.256;2023-07-22T06:32:37;17.88;;;7.43;;
41689;SDS011;27372;42.658;23.256;2023-07-22T06:35:06;13.15;;;7.28;;
41689;SDS011;27372;42.658;23.256;2023-07-22T06:37:36;12.90;;;7.03;;
41689;SDS011;27372;42.658;23.256;2023-07-22T06:40:07;18.30;;;8.55;;
41689;SDS011;27372;42.658;23.256;2023-07-22T06:42:33;22.58;;;10.30;;
41689;SDS011;27372;42.658;23.256;2023-07-22T06:45:04;11.07;;;8.00;;
41689;SDS011;27372;42.658;23.256;2023-07-22T06:47:30;13.60;;;9.00;;
41689;SDS011;27372;42.658;23.256;2023-07-22T06:49:56;17.08;;;8.90;;
41689;SDS011;27372;42.658;23.256;2023-07-22T06:52:25;31.70;;;8.85;;
41689;SDS011;27372;42.658;23.256;2023-07-22T06:54:53;18.23;;;8.80;;
41689;SDS011;27372;42.658;23.256;2023-07-22T06:57:19;12.23;;;8.27;;
41689;SDS011;27372;42.658;23.256;2023-07-22T06:59:44;14.52;;;8.45;;
41689;SDS011;27372;42.658;23.256;2023-07-22T07:02:09;44.55;;;9.65;;
41689;SDS011;27372;42.658;23.256;2023-07-22T07:04:35;21.73;;;9.02;;
41689;SDS011;27372;42.658;23.256;2023-07-22T07:07:03;19.13;;;8.80;;
41689;SDS011;27372;42.658;23.256;2023-07-22T07:09:29;16.65;;;8.13;;
41689;SDS011;27372;42.658;23.256;2023-07-22T07:11:54;18.10;;;7.95;;
41689;SDS011;27372;42.658;23.256;2023-07-22T07:14:23;22.05;;;8.05;;
41689;SDS011;27372;42.658;23.256;2023-07-22T07:16:52;14.60;;;7.45;;
41689;SDS011;27372;42.658;23.256;2023-07-22T07:19:17;14.60;;;7.43;;
41689;SDS011;27372;42.658;23.256;2023-07-22T07:21:43;15.52;;;7.80;;
41689;SDS011;27372;42.658;23.256;2023-07-22T07:24:08;15.15;;;7.60;;
41689;SDS011;27372;42.658;23.256;2023-07-22T07:26:36;15.68;;;8.30;;
41689;SDS011;27372;42.658;23.256;2023-07-22T07:29:05;17.75;;;7.72;;
41689;SDS011;27372;42.658;23.256;2023-07-22T07:31:42;15.15;;;7.32;;
41689;SDS011;27372;42.658;23.256;2023-07-22T07:34:08;8.82;;;4.72;;
41689;SDS011;27372;42.658;23.256;2023-07-22T07:36:34;12.05;;;7.13;;
41689;SDS011;27372;42.658;23.256;2023-07-22T07:39:03;14.82;;;7.45;;
41689;SDS011;27372;42.658;23.256;2023-07-22T07:41:32;12.40;;;7.00;;
41689;SDS011;27372;42.658;23.256;2023-07-22T07:44:12;14.30;;;7.38;;
41689;SDS011;27372;42.658;23.256;2023-07-22T07:46:40;9.35;;;6.72;;
41689;SDS011;27372;42.658;23.256;2023-07-22T07:49:17;18.85;;;8.25;;
41689;SDS011;27372;42.658;23.256;2023-07-22T07:51:46;16.83;;;8.00;;
41689;SDS011;27372;42.658;23.256;2023-07-22T07:54:26;15.75;;;7.53;;
41689;SDS011;27372;42.658;23.256;2023-07-22T07:56:52;12.75;;;7.40;;
41689;SDS011;27372;42.658;23.256;2023-07-22T07:59:17;14.13;;;7.80;;
41689;SDS011;27372;42.658;23.256;2023-07-22T08:01:42;15.40;;;6.70;;
41689;SDS011;27372;42.658;23.256;2023-07-22T08:04:08;23.25;;;8.48;;
41689;SDS011;27372;42.658;23.256;2023-07-22T08:06:39;16.88;;;7.65;;
41689;SDS011;27372;42.658;23.256;2023-07-22T08:09:06;19.63;;;7.60;;
41689;SDS011;27372;42.658;23.256;2023-07-22T08:11:31;13.77;;;7.40;;
41689;SDS011;27372;42.658;23.256;2023-07-22T08:14:03;17.42;;;7.65;;
41689;SDS011;27372;42.658;23.256;2023-07-22T08:16:30;15.48;;;7.82;;
41689;SDS011;27372;42.658;23.256;2023-07-22T08:18:56;18.38;;;8.00;;
41689;SDS011;27372;42.658;23.256;2023-07-22T08:21:21;21.73;;;8.27;;
41689;SDS011;27372;42.658;23.256;2023-07-22T08:23:47;15.75;;;7.38;;
41689;SDS011;27372;42.658;23.256;2023-07-22T08:26:17;19.63;;;7.95;;
41689;SDS011;27372;42.658;23.256;2023-07-22T08:28:48;24.98;;;8.02;;
41689;SDS011;27372;42.658;23.256;2023-07-22T08:31:14;26.17;;;8.23;;
41689;SDS011;27372;42.658;23.256;2023-07-22T08:33:43;14.35;;;8.05;;
41689;SDS011;27372;42.658;23.256;2023-07-22T08:36:09;14.00;;;8.20;;
41689;SDS011;27372;42.658;23.256;2023-07-22T08:38:34;16.65;;;8.20;;
41689;SDS011;27372;42.658;23.256;2023-07-22T08:41:00;14.52;;;7.70;;
41689;SDS011;27372;42.658;23.256;2023-07-22T08:43:26;18.13;;;8.07;;
41689;SDS011;27372;42.658;23.256;2023-07-22T08:45:53;16.27;;;8.10;;
41689;SDS011;27372;42.658;23.256;2023-07-22T08:48:19;26.30;;;8.95;;
41689;SDS011;27372;42.658;23.256;2023-07-22T08:53:18;18.65;;;8.00;;
41689;SDS011;27372;42.658;23.256;2023-07-22T08:55:48;14.40;;;7.13;;
41689;SDS011;27372;42.658;23.256;2023-07-22T08:58:14;20.05;;;8.02;;
41689;SDS011;27372;42.658;23.256;2023-07-22T09:00:41;19.25;;;7.50;;
41689;SDS011;27372;42.658;23.256;2023-07-22T09:03:07;13.65;;;7.30;;
41689;SDS011;27372;42.658;23.256;2023-07-22T09:05:34;23.65;;;8.25;;
41689;SDS011;27372;42.658;23.256;2023-07-22T09:08:02;18.23;;;7.70;;
41689;SDS011;27372;42.658;23.256;2023-07-22T09:10:29;23.80;;;8.47;;
41689;SDS011;27372;42.658;23.256;2023-07-22T09:12:54;15.88;;;7.45;;
41689;SDS011;27372;42.658;23.256;2023-07-22T09:15:21;18.77;;;7.80;;
41689;SDS011;27372;42.658;23.256;2023-07-22T09:17:48;19.90;;;7.70;;
41689;SDS011;27372;42.658;23.256;2023-07-22T09:20:14;17.50;;;7.53;;
41689;SDS011;27372;42.658;23.256;2023-07-22T09:22:47;20.88;;;7.78;;
41689;SDS011;27372;42.658;23.256;2023-07-22T09:27:43;15.40;;;7.53;;
41689;SDS011;27372;42.658;23.256;2023-07-22T09:35:28;19.73;;;7.47;;
41689;SDS011;27372;42.658;23.256;2023-07-22T09:38:11;20.60;;;7.65;;
41689;SDS011;27372;42.658;23.256;2023-07-22T09:40:39;16.80;;;7.25;;
41689;SDS011;27372;42.658;23.256;2023-07-22T09:43:08;14.15;;;7.13;;
41689;SDS011;27372;42.658;23.256;2023-07-22T09:45:35;18.27;;;7.32;;
41689;SDS011;27372;42.658;23.256;2023-07-22T09:48:03;23.45;;;7.15;;
41689;SDS011;27372;42.658;23.256;2023-07-22T09:50:29;19.92;;;7.63;;
41689;SDS011;27372;42.658;23.256;2023-07-22T09:52:56;23.77;;;7.90;;
41689;SDS011;27372;42.658;23.256;2023-07-22T09:55:30;17.83;;;7.20;;
41689;SDS011;27372;42.658;23.256;2023-07-22T09:58:00;20.35;;;7.28;;
41689;SDS011;27372;42.658;23.256;2023-07-22T10:00:36;21.10;;;7.10;;
41689;SDS011;27372;42.658;23.256;2023-07-22T10:03:14;13.85;;;6.72;;
41689;SDS011;27372;42.658;23.256;2023-07-22T10:05:44;18.10;;;7.25;;
41689;SDS011;27372;42.658;23.256;2023-07-22T10:08:11;22.20;;;7.50;;
41689;SDS011;27372;42.658;23.256;2023-07-22T10:10:41;15.60;;;5.80;;
41689;SDS011;27372;42.658;23.256;2023-07-22T10:16:05;23.83;;;6.55;;
41689;SDS011;27372;42.658;23.256;2023-07-22T10:18:31;18.27;;;6.35;;
41689;SDS011;27372;42.658;23.256;2023-07-22T10:20:57;21.85;;;6.13;;
41689;SDS011;27372;42.658;23.256;2023-07-22T10:23:38;15.07;;;5.68;;
41689;SDS011;27372;42.658;23.256;2023-07-22T10:26:08;18.02;;;5.78;;
41689;SDS011;27372;42.658;23.256;2023-07-22T10:28:38;22.20;;;5.77;;
41689;SDS011;27372;42.658;23.256;2023-07-22T10:31:05;19.48;;;5.75;;
41689;SDS011;27372;42.658;23.256;2023-07-22T10:33:31;19.17;;;5.78;;
41689;SDS011;27372;42.658;23.256;2023-07-22T10:36:06;19.02;;;6.00;;
41689;SDS011;27372;42.658;23.256;2023-07-22T10:38:33;25.67;;;6.15;;
41689;SDS011;27372;42.658;23.256;2023-07-22T10:41:14;22.45;;;5.88;;
41689;SDS011;27372;42.658;23.256;2023-07-22T10:43:42;22.42;;;5.65;;
41689;SDS011;27372;42.658;23.256;2023-07-22T10:46:36;23.30;;;6.43;;
41689;SDS011;27372;42.658;23.256;2023-07-22T10:49:14;20.13;;;6.10;;
41689;SDS011;27372;42.658;23.256;2023-07-22T10:51:51;20.55;;;5.95;;
41689;SDS011;27372;42.658;23.256;2023-07-22T10:54:33;24.52;;;5.78;;
41689;SDS011;27372;42.658;23.256;2023-07-22T10:57:03;28.48;;;5.97;;
41689;SDS011;27372;42.658;23.256;2023-07-22T10:59:56;21.05;;;5.40;;
41689;SDS011;27372;42.658;23.256;2023-07-22T11:02:27;25.42;;;5.47;;
41689;SDS011;27372;42.658;23.256;2023-07-22T11:04:58;21.33;;;5.65;;
41689;SDS011;27372;42.658;23.256;2023-07-22T11:07:42;24.63;;;5.95;;
41689;SDS011;27372;42.658;23.256;2023-07-22T11:10:16;23.75;;;5.65;;
41689;SDS011;27372;42.658;23.256;2023-07-22T11:12:46;21.55;;;6.15;;
41689;SDS011;27372;42.658;23.256;2023-07-22T11:15:16;20.33;;;5.80;;
41689;SDS011;27372;42.658;23.256;2023-07-22T11:17:47;24.15;;;5.28;;
41689;SDS011;27372;42.658;23.256;2023-07-22T11:22:55;19.80;;;5.95;;
41689;SDS011;27372;42.658;23.256;2023-07-22T11:25:25;21.67;;;5.95;;
41689;SDS011;27372;42.658;23.256;2023-07-22T11:28:01;19.85;;;5.82;;
41689;SDS011;27372;42.658;23.256;2023-07-22T11:30:31;26.48;;;6.20;;
41689;SDS011;27372;42.658;23.256;2023-07-22T11:33:09;25.45;;;5.63;;
41689;SDS011;27372;42.658;23.256;2023-07-22T11:35:36;21.50;;;6.20;;
41689;SDS011;27372;42.658;23.256;2023-07-22T11:38:03;22.23;;;5.90;;
41689;SDS011;27372;42.658;23.256;2023-07-22T11:40:35;23.90;;;5.93;;
41689;SDS011;27372;42.658;23.256;2023-07-22T11:43:10;22.67;;;5.70;;
41689;SDS011;27372;42.658;23.256;2023-07-22T11:45:37;26.83;;;6.75;;
41689;SDS011;27372;42.658;23.256;2023-07-22T11:48:08;22.73;;;5.82;;
41689;SDS011;27372;42.658;23.256;2023-07-22T11:50:36;22.00;;;5.95;;
41689;SDS011;27372;42.658;23.256;2023-07-22T11:53:01;28.60;;;6.32;;
41689;SDS011;27372;42.658;23.256;2023-07-22T11:55:27;25.10;;;6.13;;
41689;SDS011;27372;42.658;23.256;2023-07-22T11:57:55;21.92;;;5.85;;
41689;SDS011;27372;42.658;23.256;2023-07-22T12:00:21;19.50;;;5.95;;
41689;SDS011;27372;42.658;23.256;2023-07-22T12:02:49;27.30;;;5.82;;
41689;SDS011;27372;42.658;23.256;2023-07-22T12:05:21;23.90;;;6.00;;
41689;SDS011;27372;42.658;23.256;2023-07-22T12:07:46;33.95;;;5.85;;
41689;SDS011;27372;42.658;23.256;2023-07-22T12:10:12;21.88;;;5.72;;
41689;SDS011;27372;42.658;23.256;2023-07-22T12:12:45;16.55;;;5.28;;
41689;SDS011;27372;42.658;23.256;2023-07-22T12:15:21;23.05;;;6.07;;
41689;SDS011;27372;42.658;23.256;2023-07-22T12:17:52;24.42;;;5.53;;
41689;SDS011;27372;42.658;23.256;2023-07-22T12:20:29;26.48;;;5.93;;
41689;SDS011;27372;42.658;23.256;2023-07-22T12:22:59;22.00;;;5.82;;
41689;SDS011;27372;42.658;23.256;2023-07-22T12:25:26;26.42;;;5.88;;
41689;SDS011;27372;42.658;23.256;2023-07-22T12:27:55;24.17;;;6.07;;
41689;SDS011;27372;42.658;23.256;2023-07-22T12:30:20;23.23;;;5.85;;
41689;SDS011;27372;42.658;23.256;2023-07-22T12:32:46;30.42;;;5.53;;
41689;SDS011;27372;42.658;23.256;2023-07-22T12:35:12;26.45;;;6.10;;
41689;SDS011;27372;42.658;23.256;2023-07-22T12:37:38;22.83;;;5.60;;
41689;SDS011;27372;42.658;23.256;2023-07-22T12:40:04;21.98;;;5.43;;
41689;SDS011;27372;42.658;23.256;2023-07-22T12:42:33;17.83;;;5.68;;
41689;SDS011;27372;42.658;23.256;2023-07-22T12:44:59;30.02;;;6.43;;
41689;SDS011;27372;42.658;23.256;2023-07-22T12:47:24;28.30;;;5.93;;
41689;SDS011;27372;42.658;23.256;2023-07-22T12:49:50;24.53;;;5.60;;
41689;SDS011;27372;42.658;23.256;2023-07-22T12:52:18;19.42;;;5.72;;
41689;SDS011;27372;42.658;23.256;2023-07-22T12:54:47;25.95;;;6.13;;
41689;SDS011;27372;42.658;23.256;2023-07-22T12:57:16;25.52;;;5.63;;
41689;SDS011;27372;42.658;23.256;2023-07-22T12:59:41;23.27;;;5.80;;
41689;SDS011;27372;42.658;23.256;2023-07-22T13:02:10;20.80;;;5.45;;
41689;SDS011;27372;42.658;23.256;2023-07-22T13:04:38;26.35;;;5.85;;
41689;SDS011;27372;42.658;23.256;2023-07-22T13:07:06;22.85;;;5.63;;
41689;SDS011;27372;42.658;23.256;2023-07-22T13:09:35;30.83;;;5.60;;
41689;SDS011;27372;42.658;23.256;2023-07-22T13:12:09;22.80;;;5.82;;
41689;SDS011;27372;42.658;23.256;2023-07-22T13:14:45;27.90;;;5.72;;
41689;SDS011;27372;42.658;23.256;2023-07-22T13:17:11;21.25;;;5.78;;
41689;SDS011;27372;42.658;23.256;2023-07-22T13:19:56;24.45;;;5.75;;
41689;SDS011;27372;42.658;23.256;2023-07-22T13:22:22;23.67;;;5.55;;
41689;SDS011;27372;42.658;23.256;2023-07-22T13:24:49;32.08;;;5.75;;
41689;SDS011;27372;42.658;23.256;2023-07-22T13:27:15;18.52;;;5.45;;
41689;SDS011;27372;42.658;23.256;2023-07-22T13:29:40;29.02;;;5.90;;
41689;SDS011;27372;42.658;23.256;2023-07-22T13:32:06;29.33;;;5.78;;
41689;SDS011;27372;42.658;23.256;2023-07-22T13:34:32;26.30;;;6.13;;
41689;SDS011;27372;42.658;23.256;2023-07-22T13:37:00;21.92;;;5.65;;
41689;SDS011;27372;42.658;23.256;2023-07-22T13:39:27;25.73;;;6.03;;
41689;SDS011;27372;42.658;23.256;2023-07-22T13:41:53;21.42;;;6.00;;
41689;SDS011;27372;42.658;23.256;2023-07-22T13:44:18;36.70;;;5.50;;
41689;SDS011;27372;42.658;23.256;2023-07-22T13:46:46;44.50;;;6.63;;
41689;SDS011;27372;42.658;23.256;2023-07-22T13:49:15;31.40;;;5.50;;
41689;SDS011;27372;42.658;23.256;2023-07-22T13:51:41;23.90;;;5.40;;
41689;SDS011;27372;42.658;23.256;2023-07-22T13:54:09;23.52;;;5.65;;
41689;SDS011;27372;42.658;23.256;2023-07-22T13:56:35;23.40;;;6.00;;
41689;SDS011;27372;42.658;23.256;2023-07-22T13:59:00;21.98;;;5.03;;
41689;SDS011;27372;42.658;23.256;2023-07-22T14:01:29;23.10;;;5.45;;
41689;SDS011;27372;42.658;23.256;2023-07-22T14:03:54;23.98;;;5.60;;
41689;SDS011;27372;42.658;23.256;2023-07-22T14:06:20;25.05;;;5.78;;
41689;SDS011;27372;42.658;23.256;2023-07-22T14:08:45;35.38;;;5.75;;
41689;SDS011;27372;42.658;23.256;2023-07-22T14:11:10;21.67;;;5.60;;
41689;SDS011;27372;42.658;23.256;2023-07-22T14:13:36;25.30;;;5.90;;
41689;SDS011;27372;42.658;23.256;2023-07-22T14:16:02;22.97;;;5.70;;
41689;SDS011;27372;42.658;23.256;2023-07-22T14:18:28;19.33;;;5.47;;
41689;SDS011;27372;42.658;23.256;2023-07-22T14:20:56;27.33;;;5.68;;
41689;SDS011;27372;42.658;23.256;2023-07-22T14:23:22;23.42;;;6.00;;
41689;SDS011;27372;42.658;23.256;2023-07-22T14:25:47;25.42;;;5.28;;
41689;SDS011;27372;42.658;23.256;2023-07-22T14:28:12;21.55;;;5.88;;
41689;SDS011;27372;42.658;23.256;2023-07-22T14:30:38;22.13;;;5.85;;
41689;SDS011;27372;42.658;23.256;2023-07-22T14:33:03;28.47;;;5.60;;
41689;SDS011;27372;42.658;23.256;2023-07-22T14:35:29;27.85;;;5.28;;
41689;SDS011;27372;42.658;23.256;2023-07-22T14:38:00;26.02;;;6.53;;
41689;SDS011;27372;42.658;23.256;2023-07-22T14:40:26;26.88;;;5.95;;
41689;SDS011;27372;42.658;23.256;2023-07-22T14:42:51;29.08;;;5.95;;
41689;SDS011;27372;42.658;23.256;2023-07-22T14:45:20;27.50;;;6.35;;
41689;SDS011;27372;42.658;23.256;2023-07-22T14:47:48;26.45;;;6.05;;
41689;SDS011;27372;42.658;23.256;2023-07-22T14:50:13;27.85;;;5.85;;